createdAt,value
2017-08-11T00:00:07.812Z,51.23
2017-08-11T00:02:35.377Z,49.37
2017-08-11T00:05:02.967Z,50.60
2017-08-11T00:07:30.555Z,52.43
2017-08-11T00:09:58.127Z,50.50
2017-08-11T00:12:25.731Z,55.33
2017-08-11T00:14:53.296Z,55.00
2017-08-11T00:17:20.849Z,52.37
2017-08-11T00:19:48.462Z,52.53
2017-08-11T00:22:16.020Z,43.57
2017-08-11T00:24:43.556Z,48.93
2017-08-11T00:27:11.128Z,49.73
2017-08-11T00:29:38.707Z,45.90
2017-08-11T00:32:06.275Z,41.20
2017-08-11T00:34:33.856Z,40.07
2017-08-11T00:37:01.456Z,43.20
2017-08-11T00:39:29.019Z,46.27
2017-08-11T00:41:56.634Z,43.63
2017-08-11T00:44:24.216Z,43.90
2017-08-11T00:46:52.562Z,44.10
2017-08-11T00:49:20.167Z,43.40
2017-08-11T00:51:47.730Z,41.90
2017-08-11T00:54:15.302Z,42.87
2017-08-11T00:56:42.909Z,43.30
2017-08-11T00:59:10.488Z,41.47
2017-08-11T01:01:38.071Z,42.40
2017-08-11T01:04:06.424Z,43.07
2017-08-11T01:06:33.989Z,44.57
2017-08-11T01:09:01.566Z,48.27
2017-08-11T01:11:29.179Z,48.10
2017-08-11T01:13:56.769Z,51.10
2017-08-11T01:16:24.341Z,52.23
2017-08-11T01:18:51.946Z,47.33
2017-08-11T01:21:19.520Z,40.50
2017-08-11T01:23:47.081Z,41.87
2017-08-11T01:26:14.687Z,42.93
2017-08-11T01:28:42.268Z,44.30
2017-08-11T01:31:09.836Z,41.30
2017-08-11T01:33:38.222Z,45.47
2017-08-11T01:36:05.803Z,46.77
2017-08-11T01:38:33.365Z,50.53
2017-08-11T01:41:00.973Z,48.47
2017-08-11T01:43:28.536Z,47.87
2017-08-11T01:45:56.129Z,49.00
2017-08-11T01:48:24.500Z,49.90
2017-08-11T01:50:52.056Z,49.40
2017-08-11T01:53:19.630Z,47.60
2017-08-11T01:55:47.989Z,45.20
2017-08-11T01:58:15.566Z,41.80
2017-08-11T02:00:43.160Z,45.23
2017-08-11T02:03:10.744Z,47.23
2017-08-11T02:05:38.323Z,47.30
2017-08-11T02:08:05.898Z,41.03
2017-08-11T02:10:33.502Z,40.47
2017-08-11T02:13:01.099Z,38.97
2017-08-11T02:15:28.678Z,39.73
2017-08-11T02:17:56.297Z,40.73
2017-08-11T02:20:23.883Z,39.03
2017-08-11T02:22:51.440Z,37.10
2017-08-11T02:25:19.018Z,37.87
2017-08-11T02:27:46.565Z,36.53
2017-08-11T02:30:14.119Z,33.93
2017-08-11T02:32:41.690Z,32.57
2017-08-11T02:35:09.216Z,31.27
2017-08-11T02:37:37.528Z,36.27
2017-08-11T02:40:05.099Z,32.00
2017-08-11T02:42:32.652Z,31.97
2017-08-11T02:45:00.204Z,30.60
2017-08-11T02:47:27.766Z,31.10
2017-08-11T02:49:55.320Z,32.23
2017-08-11T02:52:22.871Z,27.83
2017-08-11T02:54:50.434Z,29.80
2017-08-11T02:57:18.014Z,32.13
2017-08-11T02:59:45.549Z,30.70
2017-08-11T03:02:13.881Z,31.90
2017-08-11T03:04:41.412Z,30.70
2017-08-11T03:07:08.959Z,25.43
2017-08-11T03:09:36.536Z,26.77
2017-08-11T03:12:04.074Z,28.70
2017-08-11T03:14:32.410Z,26.80
2017-08-11T03:16:59.990Z,23.60
2017-08-11T03:19:27.532Z,24.70
2017-08-11T03:21:55.070Z,24.73
2017-08-11T03:24:22.642Z,25.67
2017-08-11T03:26:50.184Z,27.50
2017-08-11T03:29:17.743Z,24.77
2017-08-11T03:31:45.294Z,22.77
2017-08-11T03:34:12.858Z,18.53
2017-08-11T03:36:40.389Z,17.60
2017-08-11T03:39:07.933Z,17.83
2017-08-11T03:41:35.490Z,17.33
2017-08-11T03:44:03.028Z,18.10
2017-08-11T03:46:30.607Z,18.37
2017-08-11T03:48:58.141Z,15.87
2017-08-11T03:51:25.672Z,17.50
2017-08-11T03:53:53.265Z,18.00
2017-08-11T03:56:20.814Z,15.60
2017-08-11T03:58:48.353Z,15.33
2017-08-11T04:01:15.964Z,18.20
2017-08-11T04:03:43.502Z,18.17
2017-08-11T04:06:11.059Z,16.77
2017-08-11T04:08:38.630Z,14.53
2017-08-11T04:11:06.166Z,18.13
2017-08-11T04:13:34.477Z,14.93
2017-08-11T04:16:02.052Z,15.97
2017-08-11T04:18:29.603Z,15.00
2017-08-11T04:20:57.157Z,14.77
2017-08-11T04:23:24.735Z,15.73
2017-08-11T04:25:52.260Z,13.33
2017-08-11T04:28:20.574Z,14.07
2017-08-11T04:30:48.137Z,12.73
2017-08-11T04:33:15.670Z,14.93
2017-08-11T04:35:43.209Z,15.10
2017-08-11T04:38:11.545Z,14.23
2017-08-11T04:40:39.072Z,13.40
2017-08-11T04:43:06.622Z,12.77
2017-08-11T04:45:34.192Z,13.40
2017-08-11T04:48:02.569Z,12.80
2017-08-11T04:50:30.890Z,11.60
2017-08-11T04:52:58.464Z,12.30
2017-08-11T04:55:26.014Z,12.80
2017-08-11T04:57:53.540Z,12.33
2017-08-11T05:00:21.104Z,13.43
2017-08-11T05:02:48.655Z,12.53
2017-08-11T05:05:16.973Z,13.03
2017-08-11T05:07:44.540Z,11.87
2017-08-11T05:10:12.076Z,12.87
2017-08-11T05:12:39.614Z,13.50
2017-08-11T05:15:07.186Z,15.90
2017-08-11T05:17:35.507Z,15.07
2017-08-11T05:20:03.047Z,15.00
2017-08-11T05:22:30.617Z,16.63
2017-08-11T05:24:58.153Z,15.10
2017-08-11T05:27:25.718Z,15.13
2017-08-11T05:29:53.286Z,14.60
2017-08-11T05:32:20.832Z,15.57
2017-08-11T05:34:48.379Z,15.20
2017-08-11T05:37:16.712Z,16.87
2017-08-11T05:39:44.249Z,15.63
2017-08-11T05:42:11.835Z,15.70
2017-08-11T05:44:39.415Z,14.73
2017-08-11T05:47:06.962Z,16.10
2017-08-11T05:49:34.515Z,14.60
2017-08-11T05:52:02.103Z,16.13
2017-08-11T05:54:29.653Z,14.57
2017-08-11T05:56:57.213Z,15.80
2017-08-11T05:59:24.777Z,16.50
2017-08-11T06:01:52.317Z,14.10
2017-08-11T06:04:19.885Z,17.00
2017-08-11T06:06:47.445Z,17.10
2017-08-11T06:09:14.975Z,16.70
2017-08-11T06:11:42.509Z,16.40
2017-08-11T06:14:10.287Z,17.07
2017-08-11T06:16:37.820Z,16.60
2017-08-11T06:19:05.368Z,18.00
2017-08-11T06:21:32.930Z,17.20
2017-08-11T06:24:00.459Z,20.47
2017-08-11T06:26:28.013Z,17.50
2017-08-11T06:28:56.225Z,19.40
2017-08-11T06:31:23.781Z,16.90
2017-08-11T06:33:51.384Z,18.77
2017-08-11T06:36:19.139Z,17.17
2017-08-11T06:38:46.681Z,16.83
2017-08-11T06:41:14.208Z,16.07
2017-08-11T06:43:42.548Z,15.80
2017-08-11T06:46:10.087Z,15.43
2017-08-11T06:48:37.621Z,17.70
2017-08-11T06:51:05.199Z,15.63
2017-08-11T06:53:32.759Z,17.87
2017-08-11T06:56:00.319Z,17.33
2017-08-11T06:58:28.892Z,15.90
2017-08-11T07:00:56.431Z,15.50
2017-08-11T07:03:24.737Z,15.33
2017-08-11T07:05:52.424Z,16.10
2017-08-11T07:08:19.964Z,15.93
2017-08-11T07:10:47.515Z,13.80
2017-08-11T07:13:15.121Z,14.30
2017-08-11T07:15:42.692Z,13.57
2017-08-11T07:18:10.237Z,10.63
2017-08-11T07:20:37.819Z,12.73
2017-08-11T07:23:05.366Z,13.07
2017-08-11T07:25:32.918Z,14.40
2017-08-11T07:28:00.972Z,15.03
2017-08-11T07:30:28.525Z,16.77
2017-08-11T07:32:56.057Z,15.63
2017-08-11T07:35:23.638Z,18.10
2017-08-11T07:37:51.953Z,15.53
2017-08-11T07:40:19.503Z,14.90
2017-08-11T07:42:47.076Z,14.53
2017-08-11T07:45:15.075Z,15.00
2017-08-11T07:47:42.613Z,14.47
2017-08-11T07:50:10.191Z,15.20
2017-08-11T07:52:37.803Z,14.67
2017-08-11T07:55:05.349Z,15.87
2017-08-11T07:57:32.930Z,16.20
2017-08-11T08:00:00.479Z,13.00
2017-08-11T08:02:28.780Z,14.17
2017-08-11T08:04:56.331Z,14.80
2017-08-11T08:07:23.882Z,15.70
2017-08-11T08:09:52.186Z,15.70
2017-08-11T08:12:19.768Z,15.47
2017-08-11T08:14:47.304Z,16.87
2017-08-11T08:17:14.845Z,16.23
2017-08-11T08:19:43.169Z,13.50
2017-08-11T08:22:10.706Z,13.23
2017-08-11T08:24:38.267Z,13.10
2017-08-11T08:27:05.852Z,12.50
2017-08-11T08:29:33.393Z,11.47
2017-08-11T08:32:00.942Z,12.27
2017-08-11T08:34:29.687Z,12.00
2017-08-11T08:36:58.229Z,12.30
2017-08-11T08:39:25.764Z,13.27
2017-08-11T08:41:54.112Z,16.47
2017-08-11T08:44:21.659Z,16.80
2017-08-11T08:46:49.197Z,17.80
2017-08-11T08:49:16.758Z,17.73
2017-08-11T08:51:44.311Z,18.40
2017-08-11T08:54:11.871Z,15.97
2017-08-11T08:56:39.450Z,18.83
2017-08-11T08:59:06.976Z,16.27
2017-08-11T09:01:35.280Z,18.00
2017-08-11T09:04:07.168Z,15.00
2017-08-11T09:06:34.807Z,14.23
2017-08-11T09:09:02.353Z,15.37
2017-08-11T09:11:30.689Z,15.37
2017-08-11T09:13:58.236Z,13.60
2017-08-11T09:16:25.787Z,14.20
2017-08-11T09:18:53.344Z,15.50
2017-08-11T09:21:20.870Z,12.70
2017-08-11T09:23:49.185Z,12.93
2017-08-11T09:26:28.766Z,13.77
2017-08-11T09:29:08.224Z,13.00
2017-08-11T09:31:47.622Z,14.17
2017-08-11T09:34:27.086Z,14.90
2017-08-11T09:36:54.640Z,14.00
2017-08-11T09:39:22.183Z,16.20
2017-08-11T09:41:49.710Z,15.17
2017-08-11T09:44:18.054Z,15.67
2017-08-11T09:46:45.599Z,16.37
2017-08-11T09:49:13.133Z,15.47
2017-08-11T09:51:40.692Z,14.07
2017-08-11T09:54:08.230Z,16.17
2017-08-11T09:56:36.534Z,12.40
2017-08-11T09:59:04.117Z,15.00
2017-08-11T10:01:31.663Z,13.70
2017-08-11T10:03:59.192Z,15.00
2017-08-11T10:06:27.535Z,15.53
2017-08-11T10:08:56.728Z,15.40
2017-08-11T10:11:24.266Z,14.30
2017-08-11T10:13:51.842Z,13.80
2017-08-11T10:16:19.381Z,14.80
2017-08-11T10:18:46.916Z,12.60
2017-08-11T10:21:15.278Z,12.03
2017-08-11T10:23:42.842Z,11.60
2017-08-11T10:26:10.392Z,11.13
2017-08-11T10:28:37.963Z,12.30
2017-08-11T10:31:06.000Z,12.30
2017-08-11T10:33:33.547Z,11.40
2017-08-11T10:36:01.127Z,10.97
2017-08-11T10:38:28.653Z,13.80
2017-08-11T10:40:56.947Z,12.93
2017-08-11T10:43:24.547Z,13.33
2017-08-11T10:45:52.124Z,12.63
2017-08-11T10:48:19.671Z,13.00
2017-08-11T10:50:47.253Z,12.90
2017-08-11T10:53:16.067Z,11.70
2017-08-11T10:55:44.505Z,13.43
2017-08-11T10:58:12.073Z,10.47
2017-08-11T11:00:39.609Z,10.70
2017-08-11T11:03:07.206Z,11.33
2017-08-11T11:05:36.580Z,11.17
2017-08-11T11:08:04.112Z,12.23
2017-08-11T11:10:31.649Z,11.63
2017-08-11T11:12:59.226Z,9.97
2017-08-11T11:15:27.560Z,9.97
2017-08-11T11:17:55.129Z,9.57
2017-08-11T11:20:22.702Z,9.73
2017-08-11T11:22:50.237Z,8.50
2017-08-11T11:25:17.774Z,8.50
2017-08-11T11:27:45.329Z,8.07
2017-08-11T11:30:12.878Z,7.77
2017-08-11T11:32:41.180Z,10.07
2017-08-11T11:35:08.756Z,9.90
2017-08-11T11:37:36.319Z,9.60
2017-08-11T11:40:03.862Z,9.30
2017-08-11T11:42:31.436Z,8.87
2017-08-11T11:44:58.963Z,9.30
2017-08-11T11:47:27.279Z,9.40
2017-08-11T11:49:54.833Z,9.33
2017-08-11T11:52:22.375Z,8.57
2017-08-11T11:54:50.703Z,8.97
2017-08-11T11:57:18.288Z,10.77
2017-08-11T11:59:45.821Z,9.20
2017-08-11T12:02:13.365Z,8.80
2017-08-11T12:04:40.935Z,8.37
2017-08-11T12:07:08.481Z,9.57
2017-08-11T12:09:36.015Z,8.30
2017-08-11T12:12:04.346Z,7.80
2017-08-11T12:14:31.868Z,9.23
2017-08-11T12:17:00.162Z,8.90
2017-08-11T12:19:27.727Z,8.10
2017-08-11T12:21:55.267Z,7.47
2017-08-11T12:24:23.572Z,7.30
2017-08-11T12:26:51.130Z,6.90
2017-08-11T12:29:18.661Z,7.40
2017-08-11T12:31:46.965Z,6.80
2017-08-11T12:34:14.549Z,7.20
2017-08-11T12:36:42.104Z,7.73
2017-08-11T12:39:09.636Z,8.03
2017-08-11T12:41:37.978Z,7.87
2017-08-11T12:44:05.516Z,6.53
2017-08-11T12:46:33.055Z,6.53
2017-08-11T12:49:00.630Z,7.43
2017-08-11T12:51:28.177Z,7.27
2017-08-11T12:53:55.723Z,7.03
2017-08-11T12:56:24.048Z,6.40
2017-08-11T12:58:51.591Z,7.30
2017-08-11T13:01:19.127Z,6.00
2017-08-11T13:03:46.694Z,7.43
2017-08-11T13:06:14.251Z,6.77
2017-08-11T13:08:42.562Z,7.13
2017-08-11T13:11:11.471Z,6.80
2017-08-11T13:13:39.076Z,6.27
2017-08-11T13:16:06.615Z,7.30
2017-08-11T13:18:34.168Z,7.30
2017-08-11T13:21:01.694Z,5.90
2017-08-11T13:23:29.221Z,7.87
2017-08-11T13:25:57.553Z,6.60
2017-08-11T13:28:35.199Z,6.70
2017-08-11T13:31:03.714Z,7.17
2017-08-11T13:33:31.309Z,6.70
2017-08-11T13:35:58.852Z,7.67
2017-08-11T13:38:26.404Z,7.60
2017-08-11T13:40:53.953Z,7.33
2017-08-11T13:43:21.503Z,7.80
2017-08-11T13:45:49.846Z,7.70
2017-08-11T13:48:17.373Z,7.60
2017-08-11T13:50:44.927Z,7.97
2017-08-11T13:53:12.481Z,8.67
2017-08-11T13:55:40.022Z,8.90
2017-08-11T13:58:08.335Z,9.17
2017-08-11T14:00:35.888Z,10.47
2017-08-11T14:03:03.431Z,10.10
2017-08-11T14:05:31.744Z,12.17
2017-08-11T14:07:59.301Z,11.90
2017-08-11T14:10:26.846Z,12.07
2017-08-11T14:12:54.389Z,13.00
2017-08-11T14:15:21.963Z,10.80
2017-08-11T14:17:49.516Z,11.23
2017-08-11T14:20:17.807Z,9.63
2017-08-11T14:22:45.377Z,10.00
2017-08-11T14:25:12.903Z,11.57
2017-08-11T14:27:41.260Z,9.30
2017-08-11T14:30:12.163Z,10.10
2017-08-11T14:32:39.705Z,9.70
2017-08-11T14:35:07.250Z,8.77
2017-08-11T14:37:35.597Z,8.90
2017-08-11T14:40:03.144Z,8.97
2017-08-11T14:42:30.680Z,9.67
2017-08-11T14:44:58.601Z,8.23
2017-08-11T14:47:26.143Z,7.83
2017-08-11T14:49:54.022Z,8.43
2017-08-11T14:52:22.630Z,8.33
2017-08-11T14:54:50.177Z,9.27
2017-08-11T14:57:17.724Z,9.13
2017-08-11T14:59:45.286Z,8.60
2017-08-11T15:02:12.842Z,7.70
2017-08-11T15:04:40.414Z,6.87
2017-08-11T15:07:08.396Z,8.40
2017-08-11T15:09:35.949Z,7.17
2017-08-11T15:12:03.757Z,7.73
2017-08-11T15:14:32.212Z,7.13
2017-08-11T15:17:04.803Z,8.40
2017-08-11T15:19:34.741Z,8.37
2017-08-11T15:22:02.289Z,8.87
2017-08-11T15:24:33.638Z,8.60
2017-08-11T15:27:01.215Z,8.67
2017-08-11T15:29:29.504Z,8.07
2017-08-11T15:31:57.069Z,9.03
2017-08-11T15:34:24.637Z,8.30
2017-08-11T15:36:52.171Z,8.90
2017-08-11T15:39:20.510Z,9.37
2017-08-11T15:41:48.070Z,10.00
2017-08-11T15:44:15.715Z,8.37
2017-08-11T15:46:43.584Z,9.30
2017-08-11T15:49:13.968Z,9.07
2017-08-11T15:51:41.518Z,9.17
2017-08-11T15:56:48.680Z,9.10
2017-08-11T15:59:16.301Z,8.50
2017-08-11T16:01:43.837Z,9.27
2017-08-11T16:04:11.371Z,9.33
2017-08-11T16:06:39.042Z,9.73
2017-08-11T16:09:06.577Z,9.87
2017-08-11T16:11:34.126Z,10.73
2017-08-11T16:14:02.458Z,10.63
2017-08-11T16:16:30.008Z,11.13
2017-08-11T16:18:57.548Z,9.50
2017-08-11T16:21:25.130Z,10.60
2017-08-11T16:23:52.670Z,10.90
2017-08-11T16:26:21.289Z,9.97
2017-08-11T16:28:48.910Z,11.03
2017-08-11T16:31:18.751Z,11.70
2017-08-11T16:33:46.286Z,11.97
2017-08-11T16:36:13.864Z,12.77
2017-08-11T16:38:44.131Z,11.97
2017-08-11T16:41:12.136Z,11.63
2017-08-11T16:43:40.471Z,11.50
2017-08-11T16:46:08.028Z,12.80
2017-08-11T16:48:35.696Z,12.43
2017-08-11T16:51:03.289Z,11.83
2017-08-11T16:53:30.825Z,13.83
2017-08-11T16:55:58.380Z,11.97
2017-08-11T16:58:25.977Z,12.27
2017-08-11T17:00:53.521Z,13.20
2017-08-11T17:03:21.238Z,11.97
2017-08-11T17:05:49.296Z,11.37
2017-08-11T17:08:17.622Z,11.20
2017-08-11T17:10:45.702Z,12.90
2017-08-11T17:13:13.314Z,11.33
2017-08-11T17:15:41.644Z,12.43
2017-08-11T17:18:09.291Z,12.97
2017-08-11T17:20:36.871Z,12.33
2017-08-11T17:23:04.409Z,12.80
2017-08-11T17:25:31.963Z,13.33
2017-08-11T17:27:59.545Z,12.60
2017-08-11T17:30:27.101Z,12.60
2017-08-11T17:32:54.687Z,12.80
2017-08-11T17:35:22.292Z,13.80
2017-08-11T17:37:50.653Z,13.90
2017-08-11T17:40:18.215Z,13.03
2017-08-11T17:42:45.789Z,13.27
2017-08-11T17:45:13.349Z,12.60
2017-08-11T17:47:40.929Z,12.37
2017-08-11T17:50:09.278Z,15.13
2017-08-11T17:52:36.813Z,13.80
2017-08-11T17:55:04.353Z,12.90
2017-08-11T17:57:31.922Z,14.47
2017-08-11T17:59:59.459Z,14.17
2017-08-11T18:02:27.025Z,14.40
2017-08-11T18:04:54.614Z,13.97
2017-08-11T18:07:22.191Z,14.13
2017-08-11T18:09:50.020Z,14.87
2017-08-11T18:12:17.596Z,15.07
2017-08-11T18:14:45.129Z,14.23
2017-08-11T18:17:13.466Z,15.20
2017-08-11T18:19:41.044Z,15.17
2017-08-11T18:22:08.600Z,15.80
2017-08-11T18:24:36.151Z,15.30
2017-08-11T18:27:03.714Z,15.93
2017-08-11T18:29:31.280Z,14.80
2017-08-11T18:31:58.836Z,16.13
2017-08-11T18:34:26.413Z,16.33
2017-08-11T18:36:53.973Z,17.10
2017-08-11T18:39:21.527Z,15.00
2017-08-11T18:41:49.111Z,17.20
2017-08-11T18:44:16.644Z,17.60
2017-08-11T18:46:44.185Z,17.17
2017-08-11T18:49:11.769Z,17.17
2017-08-11T18:51:39.301Z,17.20
2017-08-11T18:54:06.873Z,17.73
2017-08-11T18:56:34.452Z,18.07
2017-08-11T18:59:01.988Z,17.87
2017-08-11T19:01:29.543Z,17.37
2017-08-11T19:03:57.112Z,17.10
2017-08-11T19:06:24.642Z,17.20
2017-08-11T19:08:52.171Z,18.67
2017-08-11T19:11:19.759Z,16.40
2017-08-11T19:13:47.300Z,15.90
2017-08-11T19:16:14.829Z,17.77
2017-08-11T19:18:42.388Z,16.30
2017-08-11T19:21:09.917Z,17.07
2017-08-11T19:23:38.234Z,18.10
2017-08-11T19:26:05.808Z,19.00
2017-08-11T19:28:33.333Z,18.60
2017-08-11T19:31:00.878Z,18.90
2017-08-11T19:33:29.212Z,19.50
2017-08-11T19:35:56.777Z,18.77
2017-08-11T19:38:24.336Z,17.47
2017-08-11T19:40:51.931Z,17.53
2017-08-11T19:43:20.263Z,16.47
2017-08-11T19:45:47.802Z,18.10
2017-08-11T19:48:15.368Z,16.97
2017-08-11T19:50:42.900Z,17.30
2017-08-11T19:53:10.480Z,16.40
2017-08-11T19:55:38.070Z,15.43
2017-08-11T19:58:05.616Z,18.53
2017-08-11T20:00:33.172Z,18.23
2017-08-11T20:03:00.735Z,17.13
2017-08-11T20:05:28.283Z,17.10
2017-08-11T20:07:56.599Z,21.30
2017-08-11T20:10:24.162Z,19.77
2017-08-11T20:12:51.972Z,21.10
2017-08-11T20:15:19.514Z,18.67
2017-08-11T20:17:47.088Z,18.40
2017-08-11T20:20:14.639Z,19.30
2017-08-11T20:22:42.278Z,18.60
2017-08-11T20:25:09.877Z,19.37
2017-08-11T20:27:37.431Z,18.47
2017-08-11T20:30:04.983Z,17.60
2017-08-11T20:32:32.559Z,17.80
2017-08-11T20:35:00.116Z,18.53
2017-08-11T20:37:27.663Z,17.87
2017-08-11T20:39:55.244Z,17.23
2017-08-11T20:42:23.108Z,19.60
2017-08-11T20:44:52.051Z,17.27
2017-08-11T20:47:19.937Z,17.37
2017-08-11T20:49:47.573Z,17.00
2017-08-11T20:52:15.973Z,18.17
2017-08-11T20:54:43.564Z,18.02
2017-08-11T20:57:11.106Z,19.40
2017-08-11T20:59:38.759Z,19.30
2017-08-11T21:02:06.316Z,18.50
2017-08-11T21:04:33.866Z,17.90
2017-08-11T21:07:02.530Z,18.83
2017-08-11T21:09:30.477Z,20.00
2017-08-11T21:11:58.004Z,20.20
2017-08-11T21:14:25.553Z,19.40
2017-08-11T21:16:53.144Z,16.57
2017-08-11T21:19:20.680Z,17.73
2017-08-11T21:21:48.230Z,16.63
2017-08-11T21:24:16.561Z,16.27
2017-08-11T21:26:52.946Z,17.70
2017-08-11T21:29:20.539Z,17.60
2017-08-11T21:31:48.082Z,18.60
2017-08-11T21:34:15.661Z,19.93
2017-08-11T21:36:44.010Z,20.13
2017-08-11T21:39:11.579Z,19.77
2017-08-11T21:41:39.922Z,20.30
2017-08-11T21:44:07.509Z,19.93
2017-08-11T21:46:35.074Z,21.10
2017-08-11T21:49:02.618Z,22.60
2017-08-11T21:51:30.194Z,19.83
2017-08-11T21:53:57.747Z,21.97
2017-08-11T21:56:25.328Z,21.60
2017-08-11T21:58:52.890Z,24.93
2017-08-11T22:01:20.440Z,22.07
2017-08-11T22:03:47.990Z,24.50
2017-08-11T22:06:15.569Z,23.17
2017-08-11T22:08:43.105Z,21.97
2017-08-11T22:11:10.655Z,21.00
2017-08-11T22:13:38.217Z,21.23
2017-08-11T22:16:05.749Z,22.20
2017-08-11T22:18:33.294Z,21.80
2017-08-11T22:21:00.879Z,20.10
2017-08-11T22:23:28.432Z,21.90
2017-08-11T22:25:56.001Z,21.40
2017-08-11T22:28:23.565Z,20.97
2017-08-11T22:30:51.122Z,18.93
2017-08-11T22:33:18.680Z,19.37
2017-08-11T22:35:47.013Z,16.93
2017-08-11T22:38:14.553Z,18.17
2017-08-11T22:40:42.101Z,17.90
2017-08-11T22:43:09.704Z,18.93
2017-08-11T22:45:37.263Z,17.47
2017-08-11T22:48:04.796Z,16.80
2017-08-11T22:50:32.370Z,17.73
2017-08-11T22:52:59.934Z,19.87
2017-08-11T22:55:27.462Z,19.17
2017-08-11T22:57:55.029Z,18.50
2017-08-11T23:00:22.579Z,19.87
2017-08-11T23:02:50.972Z,17.13
2017-08-11T23:05:18.546Z,17.23
2017-08-11T23:07:46.078Z,17.43
2017-08-11T23:10:13.617Z,18.47
2017-08-11T23:12:41.195Z,17.53
2017-08-11T23:15:08.746Z,18.60
2017-08-11T23:17:36.297Z,19.13
2017-08-11T23:20:03.862Z,18.83
2017-08-11T23:22:31.399Z,20.03
2017-08-11T23:24:58.936Z,19.87
2017-08-11T23:27:26.511Z,21.00
2017-08-11T23:29:54.046Z,19.60
2017-08-11T23:32:21.588Z,20.47
2017-08-11T23:34:49.168Z,19.97
2017-08-11T23:37:16.727Z,20.47
2017-08-11T23:39:45.032Z,21.07
2017-08-11T23:42:12.606Z,20.43
2017-08-11T23:44:40.156Z,21.60
2017-08-11T23:47:07.694Z,21.53
2017-08-11T23:49:35.272Z,20.30
2017-08-11T23:52:02.805Z,19.33
2017-08-11T23:54:31.115Z,20.37
2017-08-11T23:56:58.698Z,21.30
2017-08-11T23:59:26.238Z,21.73
